createdAt,value
2023-04-17T00:00:26.971Z,16.33
2023-04-17T00:02:53.542Z,21.45
2023-04-17T00:05:23.319Z,17.17
2023-04-17T00:07:49.964Z,18.00
2023-04-17T00:10:16.651Z,19.90
2023-04-17T00:12:43.171Z,17.33
2023-04-17T00:15:10.053Z,17.02
2023-04-17T00:17:36.572Z,22.58
2023-04-17T00:20:07.854Z,20.38
2023-04-17T00:22:34.256Z,18.95
2023-04-17T00:25:00.698Z,17.38
2023-04-17T00:27:27.090Z,23.20
2023-04-17T00:29:53.471Z,22.98
2023-04-17T00:32:19.862Z,17.35
2023-04-17T00:34:46.378Z,18.45
2023-04-17T00:37:12.943Z,17.92
2023-04-17T00:39:39.392Z,19.95
2023-04-17T00:42:06.053Z,17.70
2023-04-17T00:44:32.721Z,21.75
2023-04-17T00:47:02.616Z,17.65
2023-04-17T00:49:32.381Z,21.55
2023-04-17T00:52:01.477Z,22.58
2023-04-17T00:54:28.072Z,26.42
2023-04-17T00:56:56.740Z,22.70
2023-04-17T00:59:24.701Z,19.58
2023-04-17T01:01:51.183Z,17.80
2023-04-17T01:04:17.745Z,20.13
2023-04-17T01:06:44.595Z,20.80
2023-04-17T01:09:11.455Z,21.58
2023-04-17T01:11:39.236Z,18.88
2023-04-17T01:14:07.874Z,20.30
2023-04-17T01:16:39.046Z,28.13
2023-04-17T01:19:08.418Z,18.05
2023-04-17T01:21:34.812Z,25.27
2023-04-17T01:24:03.340Z,20.27
2023-04-17T01:26:34.013Z,21.23
2023-04-17T01:29:04.132Z,20.05
2023-04-17T01:31:31.345Z,28.17
2023-04-17T01:34:00.411Z,22.30
2023-04-17T01:36:27.645Z,19.35
2023-04-17T01:38:54.040Z,26.48
2023-04-17T01:41:20.562Z,22.40
2023-04-17T01:43:47.629Z,25.25
2023-04-17T01:46:16.271Z,19.70
2023-04-17T01:48:42.770Z,25.48
2023-04-17T01:51:09.148Z,18.90
2023-04-17T01:53:36.276Z,20.95
2023-04-17T01:56:02.734Z,27.27
2023-04-17T01:58:29.912Z,21.95
2023-04-17T02:00:56.645Z,20.73
2023-04-17T02:03:24.568Z,19.17
2023-04-17T02:05:53.103Z,23.23
2023-04-17T02:08:19.565Z,22.80
2023-04-17T02:10:46.227Z,19.25
2023-04-17T02:13:12.656Z,18.10
2023-04-17T02:15:39.302Z,19.63
2023-04-17T02:18:11.232Z,17.70
2023-04-17T02:20:38.262Z,21.10
2023-04-17T02:23:06.357Z,20.42
2023-04-17T02:25:33.484Z,23.60
2023-04-17T02:28:00.726Z,17.35
2023-04-17T02:30:27.858Z,19.02
2023-04-17T02:32:55.145Z,25.95
2023-04-17T02:35:23.549Z,18.15
2023-04-17T02:37:50.253Z,20.90
2023-04-17T02:40:19.207Z,23.92
2023-04-17T02:42:45.758Z,21.20
2023-04-17T02:45:12.204Z,20.38
2023-04-17T02:47:41.413Z,22.77
2023-04-17T02:50:09.047Z,18.83
2023-04-17T02:52:35.500Z,24.15
2023-04-17T02:55:02.123Z,19.92
2023-04-17T02:57:28.640Z,23.40
2023-04-17T02:59:55.311Z,22.27
2023-04-17T03:02:22.356Z,20.27
2023-04-17T03:04:50.441Z,21.70
2023-04-17T03:07:23.443Z,24.30
2023-04-17T03:09:53.956Z,25.67
2023-04-17T03:12:23.513Z,21.73
2023-04-17T03:14:52.137Z,24.40
2023-04-17T03:17:20.421Z,21.50
2023-04-17T03:19:47.098Z,23.20
2023-04-17T03:22:13.638Z,25.10
2023-04-17T03:24:41.200Z,23.65
2023-04-17T03:27:07.647Z,21.52
2023-04-17T03:29:34.096Z,23.38
2023-04-17T03:32:00.821Z,28.25
2023-04-17T03:34:29.000Z,25.05
2023-04-17T03:36:55.866Z,21.92
2023-04-17T03:39:22.351Z,26.70
2023-04-17T03:41:50.897Z,25.40
2023-04-17T03:44:18.618Z,24.00
2023-04-17T03:46:45.216Z,21.23
2023-04-17T03:49:11.910Z,20.67
2023-04-17T03:51:38.529Z,18.15
2023-04-17T03:54:05.029Z,18.75
2023-04-17T03:56:34.225Z,20.52
2023-04-17T03:59:00.660Z,23.70
2023-04-17T04:01:29.891Z,22.65
2023-04-17T04:03:56.640Z,22.55
2023-04-17T04:06:23.281Z,21.40
2023-04-17T04:08:52.287Z,21.83
2023-04-17T04:11:18.723Z,21.80
2023-04-17T04:13:49.971Z,23.98
2023-04-17T04:16:16.642Z,21.02
2023-04-17T04:18:45.601Z,22.38
2023-04-17T04:21:12.432Z,24.83
2023-04-17T04:23:45.527Z,26.25
2023-04-17T04:26:12.022Z,26.27
2023-04-17T04:28:38.452Z,22.65
2023-04-17T04:31:05.440Z,25.92
2023-04-17T04:33:31.831Z,24.65
2023-04-17T04:36:01.269Z,22.30
2023-04-17T04:38:32.513Z,28.63
2023-04-17T04:41:06.115Z,24.33
2023-04-17T04:43:33.564Z,23.50
2023-04-17T04:46:02.570Z,26.52
2023-04-17T04:48:29.104Z,25.98
2023-04-17T04:50:56.291Z,23.88
2023-04-17T04:53:22.910Z,23.45
2023-04-17T04:55:49.333Z,31.73
2023-04-17T04:58:16.308Z,31.90
2023-04-17T05:00:43.575Z,22.92
2023-04-17T05:03:10.756Z,24.10
2023-04-17T05:05:38.159Z,40.88
2023-04-17T05:08:04.895Z,30.00
2023-04-17T05:10:31.347Z,25.38
2023-04-17T05:12:58.049Z,28.30
2023-04-17T05:15:24.495Z,31.30
2023-04-17T05:17:50.982Z,24.52
2023-04-17T05:20:20.040Z,24.25
2023-04-17T05:22:46.713Z,26.92
2023-04-17T05:25:13.116Z,25.77
2023-04-17T05:27:42.046Z,26.98
2023-04-17T05:30:09.188Z,37.15
2023-04-17T05:32:35.759Z,27.92
2023-04-17T05:35:02.236Z,32.15
2023-04-17T05:37:33.225Z,29.30
2023-04-17T05:40:01.229Z,24.83
2023-04-17T05:42:27.634Z,28.20
2023-04-17T05:44:54.070Z,30.95
2023-04-17T05:47:25.422Z,26.60
2023-04-17T05:50:00.231Z,38.60
2023-04-17T05:52:26.764Z,28.27
2023-04-17T05:54:53.196Z,31.77
2023-04-17T05:57:20.045Z,28.00
2023-04-17T05:59:47.150Z,33.28
2023-04-17T06:02:16.320Z,35.58
2023-04-17T06:04:48.710Z,29.27
2023-04-17T06:07:15.266Z,28.40
2023-04-17T06:09:41.657Z,31.75
2023-04-17T06:12:14.773Z,31.80
2023-04-17T06:14:41.480Z,26.65
2023-04-17T06:17:07.942Z,35.97
2023-04-17T06:19:34.365Z,28.58
2023-04-17T06:22:03.032Z,28.83
2023-04-17T06:24:29.466Z,25.13
2023-04-17T06:26:56.596Z,25.98
2023-04-17T06:29:24.037Z,29.65
2023-04-17T06:31:52.936Z,33.30
2023-04-17T06:34:19.417Z,31.33
2023-04-17T06:36:48.227Z,34.55
2023-04-17T06:39:14.671Z,48.88
2023-04-17T06:41:41.124Z,33.38
2023-04-17T06:44:10.672Z,31.90
2023-04-17T06:46:37.268Z,21.40
2023-04-17T06:49:03.848Z,31.80
2023-04-17T06:51:30.331Z,28.58
2023-04-17T06:53:56.754Z,25.40
2023-04-17T06:56:24.230Z,31.38
2023-04-17T06:58:57.876Z,27.27
2023-04-17T07:01:24.302Z,24.90
2023-04-17T07:03:53.205Z,25.65
2023-04-17T07:06:19.600Z,29.30
2023-04-17T07:08:46.046Z,19.35
2023-04-17T07:11:12.576Z,26.92
2023-04-17T07:13:39.159Z,26.55
2023-04-17T07:16:06.390Z,26.38
2023-04-17T07:18:33.060Z,28.45
2023-04-17T07:20:59.545Z,21.88
2023-04-17T07:23:26.064Z,28.60
2023-04-17T07:25:52.866Z,28.13
2023-04-17T07:28:19.727Z,22.38
2023-04-17T07:30:51.147Z,25.45
2023-04-17T07:33:19.886Z,22.30
2023-04-17T07:35:46.291Z,20.50
2023-04-17T07:38:14.915Z,22.80
2023-04-17T07:40:43.624Z,19.88
2023-04-17T07:43:10.240Z,18.73
2023-04-17T07:45:38.534Z,18.92
2023-04-17T07:48:06.347Z,20.92
2023-04-17T07:50:32.799Z,18.08
2023-04-17T07:52:59.225Z,16.70
2023-04-17T07:55:25.659Z,19.70
2023-04-17T07:57:57.037Z,18.23
2023-04-17T08:00:23.593Z,18.40
2023-04-17T08:02:50.435Z,14.52
2023-04-17T08:05:17.090Z,13.70
2023-04-17T08:07:43.580Z,13.95
2023-04-17T08:10:10.553Z,12.82
2023-04-17T08:12:39.748Z,18.38
2023-04-17T08:15:06.689Z,17.80
2023-04-17T08:17:33.694Z,11.85
2023-04-17T08:20:02.076Z,17.50
2023-04-17T08:22:28.744Z,16.45
2023-04-17T08:24:57.864Z,15.70
2023-04-17T08:27:25.581Z,15.60
2023-04-17T08:29:55.045Z,18.48
2023-04-17T08:32:21.892Z,12.20
2023-04-17T08:34:50.626Z,16.90
2023-04-17T08:37:16.999Z,14.38
2023-04-17T08:39:43.556Z,10.55
2023-04-17T08:42:16.539Z,20.52
2023-04-17T08:44:44.884Z,15.45
2023-04-17T08:47:13.118Z,10.07
2023-04-17T08:49:43.299Z,9.00
2023-04-17T08:52:09.903Z,8.75
2023-04-17T08:54:37.941Z,8.13
2023-04-17T08:57:05.777Z,9.13
2023-04-17T08:59:35.348Z,8.90
2023-04-17T09:02:06.890Z,6.85
2023-04-17T09:04:40.674Z,6.10
2023-04-17T09:07:09.590Z,8.55
2023-04-17T09:09:47.799Z,13.35
2023-04-17T09:12:14.350Z,6.60
2023-04-17T09:14:41.135Z,7.63
2023-04-17T09:17:07.695Z,8.57
2023-04-17T09:19:35.213Z,6.70
2023-04-17T09:22:21.788Z,8.95
2023-04-17T09:24:48.662Z,8.77
2023-04-17T09:27:26.263Z,7.07
2023-04-17T09:30:04.843Z,7.93
2023-04-17T09:32:33.221Z,9.40
2023-04-17T09:35:02.416Z,5.82
2023-04-17T09:37:50.504Z,4.82
2023-04-17T09:40:21.428Z,9.93
2023-04-17T09:42:54.086Z,7.72
2023-04-17T09:45:22.189Z,7.95
2023-04-17T09:47:48.842Z,6.95
2023-04-17T09:50:22.021Z,5.80
2023-04-17T09:52:54.049Z,11.02
2023-04-17T09:55:22.218Z,5.20
2023-04-17T09:57:50.835Z,8.40
2023-04-17T10:00:22.004Z,4.88
2023-04-17T10:02:53.250Z,5.95
2023-04-17T10:05:21.240Z,4.63
2023-04-17T10:07:47.716Z,6.43
2023-04-17T10:10:26.702Z,5.95
2023-04-17T10:12:56.123Z,6.50
2023-04-17T10:15:29.042Z,5.65
2023-04-17T10:18:18.914Z,5.32
2023-04-17T10:20:49.987Z,8.90
2023-04-17T10:23:31.126Z,10.15
2023-04-17T10:26:25.775Z,6.63
2023-04-17T10:28:57.617Z,8.50
2023-04-17T10:32:02.499Z,5.60
2023-04-17T10:34:36.822Z,5.50
2023-04-17T10:37:05.518Z,9.43
2023-04-17T10:40:00.517Z,7.28
2023-04-17T10:42:30.202Z,7.13
2023-04-17T10:45:05.859Z,5.20
2023-04-17T10:47:34.668Z,5.65
2023-04-17T10:50:07.561Z,7.43
2023-04-17T10:52:40.580Z,7.70
2023-04-17T10:55:16.224Z,7.65
2023-04-17T10:57:58.775Z,8.57
2023-04-17T11:00:31.592Z,9.27
2023-04-17T11:02:59.848Z,9.95
2023-04-17T11:05:26.613Z,7.43
2023-04-17T11:07:53.290Z,5.75
2023-04-17T11:10:20.983Z,8.82
2023-04-17T11:12:48.452Z,7.22
2023-04-17T11:15:16.249Z,7.50
2023-04-17T11:17:49.746Z,9.65
2023-04-17T11:20:23.349Z,11.82
2023-04-17T11:22:50.568Z,9.68
2023-04-17T11:25:25.719Z,11.23
2023-04-17T11:27:57.397Z,9.02
2023-04-17T11:30:33.876Z,10.15
2023-04-17T11:33:05.184Z,8.15
2023-04-17T11:35:33.950Z,4.60
2023-04-17T11:38:21.721Z,4.60
2023-04-17T11:40:53.538Z,5.40
2023-04-17T11:43:21.325Z,6.53
2023-04-17T11:45:51.429Z,4.30
2023-04-17T11:48:24.539Z,8.35
2023-04-17T11:50:58.410Z,7.90
2023-04-17T11:53:25.378Z,5.60
2023-04-17T11:56:11.359Z,4.80
2023-04-17T11:58:45.701Z,7.80
2023-04-17T12:01:13.424Z,4.85
2023-04-17T12:03:40.724Z,6.28
2023-04-17T12:06:13.136Z,4.38
2023-04-17T12:08:53.310Z,4.90
2023-04-17T12:11:24.791Z,4.05
2023-04-17T12:13:55.914Z,4.25
2023-04-17T12:16:26.717Z,4.15
2023-04-17T12:18:56.716Z,2.88
2023-04-17T12:21:26.757Z,9.40
2023-04-17T12:23:56.061Z,3.83
2023-04-17T12:26:22.521Z,3.55
2023-04-17T12:28:49.069Z,6.28
2023-04-17T12:31:15.521Z,3.88
2023-04-17T12:33:42.181Z,4.22
2023-04-17T12:36:09.028Z,3.70
2023-04-17T12:38:36.048Z,6.70
2023-04-17T12:41:02.529Z,5.35
2023-04-17T12:43:28.937Z,5.45
2023-04-17T12:45:55.470Z,3.15
2023-04-17T12:48:25.013Z,5.82
2023-04-17T12:50:51.431Z,6.68
2023-04-17T12:53:17.906Z,4.65
2023-04-17T12:55:44.543Z,3.78
2023-04-17T12:58:12.627Z,4.57
2023-04-17T13:00:41.055Z,7.82
2023-04-17T13:03:07.840Z,2.38
2023-04-17T13:05:34.848Z,3.42
2023-04-17T13:08:04.081Z,3.15
2023-04-17T13:10:30.606Z,3.17
2023-04-17T13:12:57.176Z,5.60
2023-04-17T13:15:23.668Z,4.60
2023-04-17T13:17:50.060Z,8.07
2023-04-17T13:20:16.554Z,5.47
2023-04-17T13:22:42.901Z,3.95
2023-04-17T13:25:12.070Z,3.97
2023-04-17T13:27:38.610Z,4.53
2023-04-17T13:30:08.090Z,2.25
2023-04-17T13:32:35.026Z,3.53
2023-04-17T13:35:05.283Z,6.85
2023-04-17T13:37:32.023Z,5.70
2023-04-17T13:39:59.686Z,3.83
2023-04-17T13:42:26.740Z,7.25
2023-04-17T13:44:53.159Z,3.60
2023-04-17T13:47:19.703Z,8.65
2023-04-17T13:49:48.663Z,4.68
2023-04-17T13:52:15.195Z,3.17
2023-04-17T13:54:42.013Z,4.63
2023-04-17T13:57:09.571Z,3.10
2023-04-17T13:59:36.157Z,5.70
2023-04-17T14:02:07.398Z,4.90
2023-04-17T14:04:34.045Z,6.05
2023-04-17T14:07:00.717Z,4.72
2023-04-17T14:09:27.388Z,2.80
2023-04-17T14:11:57.982Z,3.38
2023-04-17T14:14:24.706Z,5.13
2023-04-17T14:16:53.760Z,3.13
2023-04-17T14:19:20.481Z,2.47
2023-04-17T14:21:47.100Z,3.67
2023-04-17T14:24:13.687Z,3.13
2023-04-17T14:26:41.917Z,5.93
2023-04-17T14:29:10.534Z,2.72
2023-04-17T14:31:37.438Z,3.95
2023-04-17T14:34:03.912Z,4.22
2023-04-17T14:36:31.097Z,4.15
2023-04-17T14:38:58.556Z,8.20
2023-04-17T14:41:29.837Z,7.72
2023-04-17T14:43:56.498Z,6.07
2023-04-17T14:46:23.167Z,3.67
2023-04-17T14:48:55.246Z,4.28
2023-04-17T14:51:23.983Z,11.75
2023-04-17T14:53:53.028Z,4.50
2023-04-17T14:56:22.977Z,3.67
2023-04-17T14:58:49.528Z,4.53
2023-04-17T15:01:16.107Z,7.45
2023-04-17T15:03:47.812Z,2.58
2023-04-17T15:06:15.929Z,2.58
2023-04-17T15:08:46.255Z,3.40
2023-04-17T15:11:12.992Z,3.97
2023-04-17T15:13:40.464Z,2.03
2023-04-17T15:16:09.141Z,4.32
2023-04-17T15:18:39.326Z,2.58
2023-04-17T15:21:06.238Z,2.38
2023-04-17T15:23:35.626Z,1.00
2023-04-17T15:26:02.239Z,0.73
2023-04-17T15:28:29.001Z,1.45
2023-04-17T15:30:58.425Z,0.88
2023-04-17T15:33:27.317Z,2.50
2023-04-17T15:35:56.173Z,2.65
2023-04-17T15:38:25.776Z,5.10
2023-04-17T15:40:52.447Z,0.70
2023-04-17T15:43:21.988Z,2.17
2023-04-17T15:45:49.226Z,5.20
2023-04-17T15:48:15.870Z,1.48
2023-04-17T15:50:42.404Z,0.80
2023-04-17T15:53:09.814Z,0.77
2023-04-17T15:55:38.652Z,1.05
2023-04-17T15:58:06.246Z,1.90
2023-04-17T16:00:34.123Z,0.73
2023-04-17T16:03:00.932Z,0.70
2023-04-17T16:05:31.981Z,1.90
2023-04-17T16:08:02.777Z,1.02
2023-04-17T16:10:29.319Z,0.82
2023-04-17T16:12:55.932Z,0.90
2023-04-17T16:15:22.812Z,1.30
2023-04-17T16:17:52.102Z,1.38
2023-04-17T16:20:20.989Z,3.00
2023-04-17T16:22:47.484Z,0.93
2023-04-17T16:25:14.042Z,1.15
2023-04-17T16:27:41.150Z,1.17
2023-04-17T16:30:08.898Z,1.20
2023-04-17T16:32:35.540Z,3.85
2023-04-17T16:35:02.038Z,1.13
2023-04-17T16:37:30.913Z,1.15
2023-04-17T16:39:57.482Z,1.88
2023-04-17T16:42:26.492Z,0.80
2023-04-17T16:44:56.004Z,1.23
2023-04-17T16:47:22.567Z,1.83
2023-04-17T16:49:49.074Z,0.85
2023-04-17T16:52:15.992Z,0.88
2023-04-17T16:54:42.449Z,1.10
2023-04-17T16:57:09.193Z,1.17
2023-04-17T16:59:35.846Z,0.98
2023-04-17T17:02:02.716Z,1.27
2023-04-17T17:04:29.806Z,2.30
2023-04-17T17:06:56.626Z,1.58
2023-04-17T17:09:23.102Z,3.08
2023-04-17T17:11:52.254Z,1.02
2023-04-17T17:14:18.861Z,0.55
2023-04-17T17:16:45.398Z,0.80
2023-04-17T17:19:11.944Z,1.73
2023-04-17T17:21:38.569Z,1.20
2023-04-17T17:24:07.693Z,0.98
2023-04-17T17:26:34.177Z,0.95
2023-04-17T17:29:07.892Z,1.35
2023-04-17T17:31:34.583Z,1.58
2023-04-17T17:34:11.930Z,1.05
2023-04-17T17:36:49.917Z,8.27
2023-04-17T17:39:16.570Z,1.10
2023-04-17T17:41:45.117Z,4.00
2023-04-17T17:44:13.226Z,1.23
2023-04-17T17:46:39.853Z,1.30
2023-04-17T17:49:06.239Z,1.20
2023-04-17T17:51:32.670Z,1.63
2023-04-17T17:53:59.160Z,2.88
2023-04-17T17:56:25.553Z,1.45
2023-04-17T17:58:52.128Z,2.83
2023-04-17T18:01:18.659Z,2.10
2023-04-17T18:03:47.381Z,4.53
2023-04-17T18:06:16.026Z,3.15
2023-04-17T18:08:42.411Z,2.92
2023-04-17T18:11:13.066Z,3.10
2023-04-17T18:13:39.473Z,2.95
2023-04-17T18:16:10.728Z,4.43
2023-04-17T18:18:37.212Z,2.40
2023-04-17T18:21:11.216Z,2.20
2023-04-17T18:23:37.654Z,2.22
2023-04-17T18:26:04.357Z,4.95
2023-04-17T18:28:33.118Z,2.88
2023-04-17T18:30:59.742Z,2.60
2023-04-17T18:33:26.177Z,2.90
2023-04-17T18:35:52.603Z,2.50
2023-04-17T18:38:19.058Z,2.95
2023-04-17T18:40:45.506Z,4.82
2023-04-17T18:43:12.044Z,6.57
2023-04-17T18:45:41.541Z,5.88
2023-04-17T18:48:11.116Z,3.55
2023-04-17T18:50:38.729Z,3.00
2023-04-17T18:53:05.212Z,4.22
2023-04-17T18:55:32.377Z,5.43
2023-04-17T18:57:58.831Z,5.38
2023-04-17T19:00:25.367Z,10.23
2023-04-17T19:02:51.985Z,11.27
2023-04-17T19:05:20.510Z,4.35
2023-04-17T19:07:51.104Z,8.85
2023-04-17T19:10:17.718Z,4.05
2023-04-17T19:12:44.472Z,8.02
2023-04-17T19:15:11.267Z,4.63
2023-04-17T19:17:38.676Z,14.23
2023-04-17T19:20:06.290Z,8.20
2023-04-17T19:22:32.681Z,8.00
2023-04-17T19:25:01.539Z,6.65
2023-04-17T19:27:28.128Z,6.60
2023-04-17T19:29:54.656Z,7.70
2023-04-17T19:32:21.542Z,4.15
2023-04-17T19:34:48.107Z,6.55
2023-04-17T19:37:14.460Z,8.05
2023-04-17T19:39:40.956Z,3.55
2023-04-17T19:42:09.971Z,4.32
2023-04-17T19:44:36.327Z,9.73
2023-04-17T19:47:02.824Z,5.93
2023-04-17T19:49:31.757Z,6.35
2023-04-17T19:51:59.160Z,4.05
2023-04-17T19:54:25.541Z,4.03
2023-04-17T19:56:52.226Z,7.45
2023-04-17T19:59:18.674Z,5.70
2023-04-17T20:01:45.596Z,7.93
2023-04-17T20:04:12.256Z,4.63
2023-04-17T20:06:39.769Z,9.32
2023-04-17T20:09:06.591Z,3.78
2023-04-17T20:11:33.043Z,5.75
2023-04-17T20:13:59.471Z,5.78
2023-04-17T20:16:26.045Z,7.47
2023-04-17T20:18:52.649Z,5.07
2023-04-17T20:21:21.787Z,13.65
2023-04-17T20:23:48.956Z,4.32
2023-04-17T20:26:18.280Z,9.35
2023-04-17T20:28:44.774Z,7.72
2023-04-17T20:31:15.820Z,5.88
2023-04-17T20:33:42.294Z,7.28
2023-04-17T20:36:11.912Z,6.05
2023-04-17T20:38:40.795Z,14.80
2023-04-17T20:41:07.224Z,8.52
2023-04-17T20:43:33.650Z,18.63
2023-04-17T20:46:00.175Z,14.90
2023-04-17T20:48:29.119Z,18.00
2023-04-17T20:50:55.538Z,16.50
2023-04-17T20:53:24.265Z,19.63
2023-04-17T20:55:50.736Z,22.52
2023-04-17T20:58:17.228Z,12.93
2023-04-17T21:01:00.132Z,13.35
2023-04-17T21:03:32.562Z,6.95
2023-04-17T21:05:59.921Z,3.67
2023-04-17T21:08:26.677Z,4.85
2023-04-17T21:10:55.625Z,7.47
2023-04-17T21:13:22.821Z,6.28
2023-04-17T21:15:51.600Z,3.00
2023-04-17T21:18:18.158Z,3.80
2023-04-17T21:20:44.545Z,7.22
2023-04-17T21:23:13.989Z,5.30
2023-04-17T21:25:40.599Z,9.80
2023-04-17T21:28:07.159Z,5.43
2023-04-17T21:30:33.557Z,5.70
2023-04-17T21:33:00.081Z,5.35
2023-04-17T21:35:27.091Z,6.78
2023-04-17T21:37:53.458Z,9.70
2023-04-17T21:40:22.406Z,11.30
2023-04-17T21:42:48.816Z,5.85
2023-04-17T21:45:17.887Z,8.90
2023-04-17T21:47:44.484Z,6.90
2023-04-17T21:50:11.145Z,3.72
2023-04-17T21:52:37.946Z,10.32
2023-04-17T21:55:07.486Z,6.20
2023-04-17T21:57:39.031Z,5.35
2023-04-17T22:00:06.363Z,6.22
2023-04-17T22:02:32.971Z,4.20
2023-04-17T22:04:59.596Z,5.55
2023-04-17T22:07:28.750Z,10.30
2023-04-17T22:09:56.166Z,8.02
2023-04-17T22:12:25.249Z,5.40
2023-04-17T22:14:51.705Z,4.82
2023-04-17T22:17:18.258Z,6.95
2023-04-17T22:19:46.964Z,9.77
2023-04-17T22:22:18.261Z,9.25
2023-04-17T22:24:44.678Z,8.20
2023-04-17T22:27:11.140Z,5.40
2023-04-17T22:29:37.553Z,5.00
2023-04-17T22:32:04.309Z,5.38
2023-04-17T22:34:30.794Z,9.68
2023-04-17T22:36:57.214Z,8.30
2023-04-17T22:39:23.725Z,9.02
2023-04-17T22:41:50.099Z,8.15
2023-04-17T22:44:19.572Z,6.03
2023-04-17T22:46:46.001Z,8.00
2023-04-17T22:49:14.166Z,5.75
2023-04-17T22:51:41.113Z,5.68
2023-04-17T22:54:19.116Z,5.65
2023-04-17T22:56:48.325Z,7.20
2023-04-17T22:59:14.869Z,8.70
2023-04-17T23:01:41.392Z,11.35
2023-04-17T23:04:09.216Z,7.07
2023-04-17T23:06:35.596Z,7.82
2023-04-17T23:09:04.788Z,7.55
2023-04-17T23:11:32.518Z,5.63
2023-04-17T23:13:58.982Z,8.90
2023-04-17T23:16:25.604Z,7.72
2023-04-17T23:18:56.668Z,14.07
2023-04-17T23:21:24.359Z,13.70
2023-04-17T23:23:53.865Z,8.88
2023-04-17T23:26:20.232Z,8.95
2023-04-17T23:28:46.989Z,8.73
2023-04-17T23:31:13.486Z,8.80
2023-04-17T23:33:44.493Z,8.20
2023-04-17T23:36:11.393Z,10.50
2023-04-17T23:38:40.458Z,13.55
2023-04-17T23:41:06.942Z,9.73
2023-04-17T23:43:33.349Z,12.90
2023-04-17T23:46:02.344Z,9.90
2023-04-17T23:48:28.783Z,8.00
2023-04-17T23:50:55.719Z,11.60
2023-04-17T23:53:22.431Z,9.38
2023-04-17T23:55:49.000Z,6.93
2023-04-17T23:58:17.558Z,6.70
